Time;durP1;ratioP1;P1;durP2;ratioP2;P2;SDS_P1;SDS_P2;PMS_P1;PMS_P2;Temp;Humidity;BMP_temperature;BMP_pressure;BME280_temperature;BME280_humidity;BME280_pressure;Samples;Min_cycle;Max_cycle;Signal;HPM_P1;HPM_P2
2022/09/30 00:00:22;;;;;;;5.68;5.10;;;;;;;14.69;100.00;63516.34;5049248;28;20264;-80
2022/09/30 00:02:48;;;;;;;5.13;4.72;;;;;;;14.65;100.00;63512.19;5047113;28;20264;-80
2022/09/30 00:05:16;;;;;;;7.22;5.22;;;;;;;14.68;100.00;63517.38;5045470;28;20552;-79
2022/09/30 00:07:42;;;;;;;10.63;5.00;;;;;;;14.67;100.00;63513.75;5047571;28;20210;-78
2022/09/30 00:10:09;;;;;;;6.35;5.35;;;;;;;14.67;100.00;63514.28;5047226;28;20252;-79
2022/09/30 00:12:36;;;;;;;8.70;5.40;;;;;;;14.75;100.00;63527.19;5047564;28;20233;-80
2022/09/30 00:15:05;;;;;;;5.20;4.80;;;;;;;14.68;100.00;63515.31;5047374;28;20213;-81
2022/09/30 00:17:32;;;;;;;7.53;5.55;;;;;;;14.57;100.00;63506.44;5047061;28;20262;-80
2022/09/30 00:19:59;;;;;;;6.80;4.25;;;;;;;14.55;100.00;63501.81;5045354;28;20206;-79
2022/09/30 00:22:26;;;;;;;10.27;5.60;;;;;;;14.52;100.00;63500.75;5046400;28;20218;-79
2022/09/30 00:24:53;;;;;;;5.28;4.88;;;;;;;14.50;100.00;63496.09;5048851;28;20244;-79
2022/09/30 00:27:21;;;;;;;6.75;5.03;;;;;;;14.58;100.00;63502.34;5045908;28;20280;-79
2022/09/30 00:29:48;;;;;;;5.22;4.75;;;;;;;14.55;100.00;63503.84;5047890;28;20197;-79
2022/09/30 00:32:16;;;;;;;5.68;4.68;;;;;;;14.50;100.00;63493.53;5049182;28;20233;-79
2022/09/30 00:34:43;;;;;;;5.68;5.18;;;;;;;14.40;100.00;63483.69;5047184;28;20194;-78
2022/09/30 00:37:13;;;;;;;5.43;4.93;;;;;;;14.44;100.00;63492.97;5041404;28;20265;-80
2022/09/30 00:39:40;;;;;;;6.28;4.95;;;;;;;14.46;100.00;63489.91;5045881;28;20202;-80
2022/09/30 00:42:13;;;;;;;5.75;5.13;;;;;;;14.50;100.00;63496.63;5044707;28;20248;-82
2022/09/30 00:44:52;;;;;;;5.07;4.65;;;;;;;14.57;100.00;63500.81;5045530;28;20193;-80
2022/09/30 00:47:36;;;;;;;5.00;4.65;;;;;;;14.64;100.00;63508.06;5045768;28;20287;-79
2022/09/30 00:50:10;;;;;;;5.53;5.03;;;;;;;14.56;100.00;63500.31;5045362;28;20265;-79
2022/09/30 00:52:37;;;;;;;7.78;3.90;;;;;;;14.53;100.00;63499.22;5046492;28;20267;-79
2022/09/30 00:55:09;;;;;;;5.95;4.47;;;;;;;14.55;100.00;63501.81;5039792;28;20220;-79
2022/09/30 00:57:37;;;;;;;5.18;4.22;;;;;;;14.53;100.00;63499.72;5045170;28;20313;-79
2022/09/30 01:00:06;;;;;;;6.80;4.22;;;;;;;14.42;100.00;63488.31;5036675;28;20199;-80
2022/09/30 01:02:35;;;;;;;6.68;4.13;;;;;;;14.41;100.00;63489.31;5044499;28;20247;-80
2022/09/30 01:05:02;;;;;;;5.47;3.97;;;;;;;14.40;100.00;63488.28;5045179;28;20205;-79
2022/09/30 01:07:29;;;;;;;5.18;4.75;;;;;;;14.39;100.00;63485.19;5045384;28;20218;-79
2022/09/30 01:09:57;;;;;;;4.72;4.32;;;;;;;14.36;100.00;63479.50;5050436;28;20190;-79
2022/09/30 01:12:26;;;;;;;4.85;4.45;;;;;;;14.30;100.00;63475.84;5045464;28;20230;-80
2022/09/30 01:14:56;;;;;;;8.15;3.95;;;;;;;14.27;100.00;63472.22;5048865;28;20260;-80
2022/09/30 01:17:33;;;;;;;6.10;4.90;;;;;;;14.24;100.00;63467.03;5047137;28;20260;-79
2022/09/30 01:20:43;;;;;;;7.28;5.22;;;;;;;14.25;100.00;63467.56;5042579;28;20201;-79
2022/09/30 01:23:35;;;;;;;7.00;4.75;;;;;;;14.20;100.00;63464.94;5016011;28;20412;-81
2022/09/30 01:26:37;;;;;;;8.80;4.93;;;;;;;14.15;100.00;63455.13;5044843;28;20233;-80
2022/09/30 01:29:43;;;;;;;11.20;5.07;;;;;;;14.18;100.00;63465.94;5043621;28;20268;-80
2022/09/30 01:32:24;;;;;;;7.85;5.25;;;;;;;14.05;100.00;63451.94;5019611;28;20221;-80
2022/09/30 01:35:03;;;;;;;12.35;5.93;;;;;;;14.03;100.00;63452.41;5045072;28;20198;-80
2022/09/30 01:37:40;;;;;;;8.10;5.13;;;;;;;14.00;100.00;63442.13;5044055;28;20260;-80
2022/09/30 01:40:21;;;;;;;13.60;5.78;;;;;;;13.93;100.00;63439.97;5046063;28;20190;-79
2022/09/30 01:42:56;;;;;;;6.88;6.18;;;;;;;13.87;100.00;63434.25;5048166;28;20448;-79
2022/09/30 01:45:32;;;;;;;7.07;6.35;;;;;;;13.83;100.00;63429.59;5045026;28;20235;-79
2022/09/30 01:48:04;;;;;;;11.27;7.10;;;;;;;13.86;100.00;63432.69;5046207;28;20218;-80
2022/09/30 01:50:42;;;;;;;8.68;7.88;;;;;;;13.84;100.00;63428.59;5048715;28;20221;-80
2022/09/30 01:53:15;;;;;;;8.77;7.97;;;;;;;13.81;100.00;63422.41;5042145;28;20237;-80
2022/09/30 01:55:49;;;;;;;8.55;7.07;;;;;;;13.75;100.00;63421.81;5051274;28;20216;-79
2022/09/30 01:58:25;;;;;;;9.85;8.05;;;;;;;13.75;100.00;63414.13;5049729;28;20213;-79
2022/09/30 02:00:58;;;;;;;10.02;8.30;;;;;;;13.72;100.00;63415.59;5036831;28;20193;-79
2022/09/30 02:03:31;;;;;;;9.02;7.47;;;;;;;13.68;100.00;63411.47;5052178;28;20229;-79
2022/09/30 02:06:03;;;;;;;9.25;8.45;;;;;;;13.65;100.00;63406.31;5050381;28;20209;-79
2022/09/30 02:08:35;;;;;;;13.68;8.30;;;;;;;13.65;100.00;63411.44;5049529;28;20229;-79
2022/09/30 02:11:07;;;;;;;12.43;7.72;;;;;;;13.65;100.00;63406.31;5051559;28;20187;-78
2022/09/30 02:13:40;;;;;;;11.73;8.27;;;;;;;13.61;100.00;63404.19;5050293;28;20593;-79
2022/09/30 02:16:12;;;;;;;8.90;8.00;;;;;;;13.60;100.00;63401.13;5051400;28;20190;-79
2022/09/30 02:18:44;;;;;;;10.15;9.07;;;;;;;13.56;100.00;63399.00;5049483;28;20225;-80
2022/09/30 02:21:15;;;;;;;10.02;8.98;;;;;;;13.55;100.00;63400.53;5049812;28;20194;-79
2022/09/30 02:23:45;;;;;;;11.02;8.88;;;;;;;13.54;100.00;63394.38;5049647;28;20280;-80
2022/09/30 02:26:18;;;;;;;12.32;8.88;;;;;;;13.53;100.00;63393.84;5050671;28;20248;-78
2022/09/30 02:28:49;;;;;;;15.18;9.88;;;;;;;13.50;100.00;63395.88;5051671;28;20260;-79
2022/09/30 02:31:20;;;;;;;13.55;10.43;;;;;;;13.53;100.00;63393.34;5048619;28;20198;-79
2022/09/30 02:33:53;;;;;;;14.23;11.05;;;;;;;13.56;100.00;63402.06;5050545;28;20225;-78
2022/09/30 02:36:24;;;;;;;9.73;8.45;;;;;;;13.61;100.00;63404.72;5047631;28;20197;-78
2022/09/30 02:39:00;;;;;;;8.95;7.28;;;;;;;13.61;100.00;63404.72;5048889;28;20264;-79
2022/09/30 02:41:31;;;;;;;9.52;7.72;;;;;;;13.66;100.00;63411.94;5048511;28;20236;-79
2022/09/30 02:43:59;;;;;;;8.50;7.13;;;;;;;13.72;100.00;63416.13;5049067;28;20229;-79
2022/09/30 02:46:34;;;;;;;10.23;7.65;;;;;;;13.74;100.00;63415.13;5048556;28;20209;-80
2022/09/30 02:49:08;;;;;;;8.52;7.13;;;;;;;13.74;100.00;63418.22;5048703;28;20202;-79
2022/09/30 02:51:42;;;;;;;7.13;6.50;;;;;;;13.71;100.00;63412.53;5050668;28;20502;-80
2022/09/30 02:54:17;;;;;;;9.45;8.55;;;;;;;13.73;100.00;63412.06;5048981;28;20229;-80
2022/09/30 02:56:51;;;;;;;8.85;7.95;;;;;;;13.66;100.00;63406.84;5048111;28;20206;-80
2022/09/30 02:59:18;;;;;;;14.48;9.48;;;;;;;13.61;100.00;63406.75;5049905;28;20198;-80
2022/09/30 03:01:45;;;;;;;14.55;10.70;;;;;;;13.68;100.00;63411.47;5047641;28;20216;-79
2022/09/30 03:04:16;;;;;;;14.82;11.30;;;;;;;13.63;100.00;63409.34;5033576;28;20206;-79
2022/09/30 03:06:43;;;;;;;12.30;10.05;;;;;;;13.54;100.00;63396.94;5039155;28;20209;-78
2022/09/30 03:09:10;;;;;;;14.52;10.43;;;;;;;13.52;100.00;63394.84;5048553;28;20206;-80
2022/09/30 03:11:37;;;;;;;14.68;10.02;;;;;;;13.53;100.00;63395.91;5046627;28;20208;-80
2022/09/30 03:14:25;;;;;;;12.40;9.90;;;;;;;13.38;100.00;63383.41;5049948;28;20234;-80
2022/09/30 03:17:30;;;;;;;14.43;9.15;;;;;;;13.48;100.00;63396.34;5049153;28;20275;-79
2022/09/30 03:20:22;;;;;;;13.63;9.45;;;;;;;13.38;100.00;63380.84;5016827;28;20190;-79
2022/09/30 03:23:04;;;;;;;10.88;8.48;;;;;;;13.35;100.00;63380.31;5042863;28;20275;-80
2022/09/30 03:25:45;;;;;;;11.77;9.43;;;;;;;13.30;100.00;63369.47;5049955;28;20198;-79
2022/09/30 03:28:22;;;;;;;13.35;9.25;;;;;;;13.32;100.00;63374.63;5047831;28;20268;-79
2022/09/30 03:30:59;;;;;;;12.07;8.85;;;;;;;13.31;100.00;63370.50;5047273;28;20209;-79
2022/09/30 03:33:37;;;;;;;13.27;9.82;;;;;;;13.30;100.00;63377.16;5049082;28;20234;-79
2022/09/30 03:36:09;;;;;;;13.25;9.45;;;;;;;13.34;100.00;63373.63;5039412;28;20198;-80
2022/09/30 03:38:47;;;;;;;13.30;10.65;;;;;;;13.07;100.00;63348.16;5043102;28;20223;-80
2022/09/30 03:41:24;;;;;;;19.60;10.20;;;;;;;13.09;100.00;63347.69;5033708;28;20190;-79
2022/09/30 03:43:56;;;;;;;16.90;10.57;;;;;;;13.08;100.00;63346.66;5049900;28;20281;-80
2022/09/30 03:46:28;;;;;;;17.85;11.68;;;;;;;13.14;100.00;63350.31;5048253;28;20206;-79
2022/09/30 03:49:00;;;;;;;19.95;10.95;;;;;;;13.17;100.00;63359.06;5048552;28;20214;-80
2022/09/30 03:51:29;;;;;;;19.27;11.00;;;;;;;13.23;100.00;63362.75;5047665;28;20213;-81
2022/09/30 03:54:00;;;;;;;39.72;13.82;;;;;;;13.18;100.00;63357.56;5043775;28;20273;-81
2022/09/30 03:56:30;;;;;;;20.77;13.52;;;;;;;13.18;100.00;63357.03;5044462;28;20202;-81
2022/09/30 03:58:57;;;;;;;21.08;12.75;;;;;;;13.20;100.00;63364.72;5049940;28;20289;-81
2022/09/30 04:01:25;;;;;;;32.20;14.77;;;;;;;13.29;100.00;63376.09;5042136;28;20237;-80
2022/09/30 04:03:53;;;;;;;26.95;15.32;;;;;;;13.02;100.00;63342.97;5038957;28;20218;-82
2022/09/30 04:06:21;;;;;;;26.80;14.13;;;;;;;13.17;100.00;63355.97;5046095;28;20221;-81
2022/09/30 04:08:50;;;;;;;19.98;12.10;;;;;;;13.15;100.00;63356.97;5046682;28;20221;-79
2022/09/30 04:11:17;;;;;;;31.10;14.35;;;;;;;13.07;100.00;63351.25;5048726;28;20206;-80
2022/09/30 04:13:44;;;;;;;286.90;34.13;;;;;;;13.00;100.00;63338.84;5048571;28;20249;-80
2022/09/30 04:16:11;;;;;;;38.33;16.05;;;;;;;13.04;100.00;63343.03;5042552;28;20198;-79
2022/09/30 04:18:38;;;;;;;202.18;24.42;;;;;;;13.02;100.00;63340.44;5039371;28;20210;-79
2022/09/30 04:21:06;;;;;;;47.00;17.90;;;;;;;12.86;100.00;63321.78;5041838;28;20194;-79
2022/09/30 04:23:35;;;;;;;46.83;15.77;;;;;;;12.93;100.00;63328.50;5042010;28;20636;-79
2022/09/30 04:26:04;;;;;;;21.55;12.80;;;;;;;12.87;100.00;63327.94;5049197;28;20213;-80
2022/09/30 04:28:31;;;;;;;29.90;15.07;;;;;;;12.79;100.00;63317.59;5045558;28;20230;-78
2022/09/30 04:30:59;;;;;;;17.55;10.98;;;;;;;12.89;100.00;63329.50;5046375;28;20213;-79
2022/09/30 04:33:27;;;;;;;17.00;9.60;;;;;;;12.85;100.00;63322.78;5044953;28;20229;-80
2022/09/30 04:35:54;;;;;;;14.07;10.13;;;;;;;12.85;100.00;63323.31;5042963;28;20215;-80
2022/09/30 04:38:22;;;;;;;19.02;11.52;;;;;;;12.91;100.00;63331.56;5043220;28;20218;-80
2022/09/30 04:40:49;;;;;;;23.67;13.20;;;;;;;12.84;100.00;63324.31;5038867;28;20261;-79
2022/09/30 04:43:18;;;;;;;20.23;12.23;;;;;;;12.82;100.00;63323.25;5035735;28;20214;-80
2022/09/30 04:45:45;;;;;;;31.15;13.25;;;;;;;12.85;100.00;63322.78;5046045;28;20206;-79
2022/09/30 04:48:13;;;;;;;25.85;12.32;;;;;;;12.88;100.00;63328.44;5045703;28;20222;-79
2022/09/30 04:50:40;;;;;;;19.83;11.43;;;;;;;13.00;100.00;63338.31;5045626;28;20276;-80
2022/09/30 04:53:07;;;;;;;14.75;9.93;;;;;;;12.98;100.00;63338.81;5044821;28;20222;-80
2022/09/30 04:55:34;;;;;;;13.73;8.63;;;;;;;13.05;100.00;63346.09;5044271;28;20234;-79
2022/09/30 04:58:01;;;;;;;10.55;9.30;;;;;;;13.13;100.00;63357.47;5042817;28;20218;-80
2022/09/30 05:00:29;;;;;;;16.00;9.68;;;;;;;13.17;100.00;63356.50;5045852;28;20201;-80
2022/09/30 05:02:56;;;;;;;16.10;10.95;;;;;;;13.18;100.00;63359.59;5045466;28;20221;-80
2022/09/30 05:05:23;;;;;;;18.73;10.93;;;;;;;13.24;100.00;63368.34;5050761;28;20206;-80
2022/09/30 05:07:50;;;;;;;16.45;10.98;;;;;;;13.23;100.00;63364.78;5045155;28;20292;-80
2022/09/30 05:10:17;;;;;;;20.33;13.75;;;;;;;13.20;100.00;63362.16;5046424;28;20380;-82
2022/09/30 05:12:44;;;;;;;18.92;13.57;;;;;;;13.26;100.00;63367.88;5045912;28;20218;-81
2022/09/30 05:15:11;;;;;;;15.40;10.95;;;;;;;13.31;100.00;63376.16;5041172;28;20248;-82
2022/09/30 05:17:39;;;;;;;23.95;13.25;;;;;;;13.23;100.00;63362.22;5045546;28;20214;-81
2022/09/30 05:20:09;;;;;;;19.33;13.57;;;;;;;13.37;100.00;63377.25;5046445;28;20194;-79
2022/09/30 05:22:37;;;;;;;14.57;11.23;;;;;;;13.39;100.00;63376.75;5047567;28;20228;-80
2022/09/30 05:25:05;;;;;;;15.38;9.77;;;;;;;13.54;100.00;63392.34;5045472;28;20204;-79
2022/09/30 05:27:32;;;;;;;17.50;11.32;;;;;;;13.64;100.00;63410.41;5044465;28;20217;-80
2022/09/30 05:29:59;;;;;;;19.75;12.02;;;;;;;13.71;100.00;63415.09;5047606;28;20205;-80
2022/09/30 05:32:25;;;;;;;20.02;11.73;;;;;;;13.79;100.00;63422.88;5043558;28;20345;-79
2022/09/30 05:34:54;;;;;;;25.92;14.50;;;;;;;13.53;100.00;63393.34;5033431;28;20234;-80
2022/09/30 05:37:21;;;;;;;28.17;14.40;;;;;;;13.54;100.00;63396.94;5040299;28;20276;-80
2022/09/30 05:39:48;;;;;;;24.23;15.27;;;;;;;13.60;100.00;63400.59;5046419;28;20209;-80
2022/09/30 05:42:15;;;;;;;24.52;13.70;;;;;;;13.70;100.00;63414.06;5044111;28;20252;-81
2022/09/30 05:44:41;;;;;;;21.77;14.15;;;;;;;13.66;100.00;63409.38;5046910;28;20240;-80
2022/09/30 05:47:10;;;;;;;23.60;14.73;;;;;;;13.81;100.00;63422.41;5045900;28;20238;-80
2022/09/30 05:49:37;;;;;;;24.60;14.23;;;;;;;13.90;100.00;63434.81;5046378;28;20209;-81
2022/09/30 05:52:06;;;;;;;23.60;15.55;;;;;;;13.94;100.00;63438.97;5045447;28;20217;-81
2022/09/30 05:54:33;;;;;;;26.48;14.63;;;;;;;14.07;100.00;63454.50;5044343;28;20233;-80
2022/09/30 05:57:00;;;;;;;26.40;15.32;;;;;;;14.20;100.00;63465.47;5043847;28;20271;-80
2022/09/30 05:59:27;;;;;;;22.33;14.43;;;;;;;14.23;100.00;63465.47;5048563;28;20216;-80
2022/09/30 06:01:54;;;;;;;22.38;15.35;;;;;;;14.24;100.00;63467.03;5044512;28;20442;-80
2022/09/30 06:04:21;;;;;;;22.90;14.50;;;;;;;14.27;100.00;63472.72;5037595;28;20214;-80
2022/09/30 06:06:48;;;;;;;23.52;13.45;;;;;;;14.33;100.00;63475.88;5031669;28;20199;-81
2022/09/30 06:09:16;;;;;;;28.50;16.85;;;;;;;14.05;100.00;63449.88;5046032;28;20217;-80
2022/09/30 06:11:44;;;;;;;73.55;20.08;;;;;;;13.99;100.00;63443.13;5035592;28;20247;-80
2022/09/30 06:14:10;;;;;;;71.45;21.48;;;;;;;14.21;100.00;63463.94;5044115;28;20242;-80
2022/09/30 06:16:37;;;;;;;88.15;22.67;;;;;;;14.31;100.00;63473.81;5047312;28;20231;-81
2022/09/30 06:19:05;;;;;;;229.43;35.95;;;;;;;14.32;100.00;63477.94;5042084;28;20213;-82
2022/09/30 06:21:32;;;;;;;47.50;20.90;;;;;;;14.45;100.00;63488.34;5042346;28;20213;-81
2022/09/30 06:23:59;;;;;;;57.85;20.85;;;;;;;14.81;100.00;63528.28;5034652;28;20210;-81
2022/09/30 06:26:27;;;;;;;40.17;20.98;;;;;;;15.08;100.00;63556.38;5046778;28;20525;-80
2022/09/30 06:28:54;;;;;;;38.38;18.70;;;;;;;15.01;100.00;63552.16;5044567;28;20264;-81
2022/09/30 06:31:21;;;;;;;37.75;19.50;;;;;;;15.17;100.00;63560.06;5040432;28;20217;-81
2022/09/30 06:33:51;;;;;;;33.03;18.23;;;;;;;15.33;100.00;63582.34;5045735;28;20237;-81
2022/09/30 06:36:18;;;;;;;37.67;19.92;;;;;;;15.43;100.00;63589.69;5045438;28;20197;-81
2022/09/30 06:38:51;;;;;;;35.30;19.65;;;;;;;15.34;100.00;63582.84;5048748;28;20281;-82
2022/09/30 06:41:18;;;;;;;33.75;17.98;;;;;;;15.35;100.00;63583.88;5035822;28;20205;-81
2022/09/30 06:43:46;;;;;;;27.60;17.70;;;;;;;15.36;100.00;63579.81;5045926;28;20217;-81
2022/09/30 06:46:13;;;;;;;19.77;14.18;;;;;;;15.53;100.00;63607.75;5049951;28;20205;-81
2022/09/30 06:48:40;;;;;;;26.02;13.60;;;;;;;15.65;100.00;63615.59;5050927;28;20217;-81
2022/09/30 06:51:09;;;;;;;23.90;14.20;;;;;;;15.79;100.00;63629.66;5051443;28;20529;-81
2022/09/30 06:53:36;;;;;;;28.33;15.45;;;;;;;15.61;100.00;63610.94;5045720;28;20506;-82
2022/09/30 06:56:03;;;;;;;33.03;17.25;;;;;;;15.36;100.00;63582.88;5049575;28;20244;-81
2022/09/30 06:58:30;;;;;;;30.13;17.17;;;;;;;15.22;100.00;63570.38;5047782;28;20283;-81
2022/09/30 07:00:59;;;;;;;27.58;16.02;;;;;;;15.35;100.00;63586.97;5047006;28;20528;-80
2022/09/30 07:03:29;;;;;;;28.45;16.77;;;;;;;15.41;100.00;63590.66;5043700;28;20229;-80
2022/09/30 07:05:57;;;;;;;25.67;15.98;;;;;;;15.45;100.00;63589.69;5036054;28;20199;-80
2022/09/30 07:08:28;;;;;;;28.05;17.05;;;;;;;15.62;100.00;63609.41;5046326;28;20229;-80
2022/09/30 07:10:55;;;;;;;26.55;16.10;;;;;;;15.70;100.00;63617.72;5040455;28;20202;-80
2022/09/30 07:13:23;;;;;;;18.52;13.55;;;;;;;15.73;100.00;63623.94;5046759;28;20234;-82
2022/09/30 07:15:52;;;;;;;17.42;11.73;;;;;;;15.75;100.00;63626.03;5046731;28;20233;-81
2022/09/30 07:18:23;;;;;;;16.65;11.38;;;;;;;15.64;100.00;63611.50;5057778;28;20214;-82
2022/09/30 07:20:51;;;;;;;23.75;14.02;;;;;;;15.94;100.00;63645.78;5047342;28;20373;-80
2022/09/30 07:23:19;;;;;;;20.25;12.98;;;;;;;16.12;100.00;63664.50;5042903;28;20643;-80
2022/09/30 07:25:50;;;;;;;19.85;12.70;;;;;;;16.20;100.00;63669.72;5039301;28;20502;-81
2022/09/30 07:28:17;;;;;;;16.92;12.10;;;;;;;16.13;100.00;63668.09;5037578;28;20387;-80
2022/09/30 07:30:44;;;;;;;15.60;11.73;;;;;;;16.28;100.00;63680.09;5040330;28;20198;-80
2022/09/30 07:33:15;;;;;;;22.20;12.88;;;;;;;16.35;100.00;63684.78;5040180;28;20222;-80
2022/09/30 07:35:51;;;;;;;23.65;14.45;;;;;;;16.33;100.00;63683.25;5046086;28;20218;-79
2022/09/30 07:38:19;;;;;;;19.17;13.95;;;;;;;16.37;100.00;63692.53;5046391;28;20553;-79
2022/09/30 07:40:54;;;;;;;22.83;13.52;;;;;;;16.52;100.00;63705.06;5040052;28;20198;-81
2022/09/30 07:43:21;;;;;;;27.25;14.35;;;;;;;16.54;100.00;63707.69;5040570;28;20596;-82
2022/09/30 07:45:48;;;;;;;24.92;14.05;;;;;;;16.54;100.00;63704.59;5037321;28;20526;-81
2022/09/30 07:50:57;;;;;;;18.30;11.93;;;;;;;16.91;100.00;63745.66;5040774;28;20223;-80
2022/09/30 07:53:24;;;;;;;14.63;10.88;;;;;;;17.00;100.00;63752.97;5044111;28;20224;-79
2022/09/30 07:55:51;;;;;;;17.02;12.10;;;;;;;17.12;100.00;63770.59;5042169;28;20229;-79
2022/09/30 07:58:18;;;;;;;16.33;11.82;;;;;;;17.23;100.00;63782.06;5036396;28;20225;-80
2022/09/30 08:00:48;;;;;;;20.02;13.90;;;;;;;17.14;100.00;63769.59;5041838;28;20221;-79
2022/09/30 08:03:15;;;;;;;23.08;13.75;;;;;;;17.14;100.00;63767.53;5035800;28;20240;-79
2022/09/30 08:05:44;;;;;;;32.40;16.42;;;;;;;17.26;100.00;63784.66;5039270;28;20395;-81
2022/09/30 08:08:12;;;;;;;26.45;16.90;;;;;;;17.23;100.00;63784.13;5042479;28;20228;-78
2022/09/30 08:10:39;;;;;;;20.42;13.82;;;;;;;17.28;100.00;63784.16;5038016;28;20220;-79
2022/09/30 08:13:06;;;;;;;24.77;16.13;;;;;;;17.19;100.00;63772.22;5038635;28;20226;-80
2022/09/30 08:15:33;;;;;;;26.35;15.65;;;;;;;17.33;100.00;63789.38;5040544;28;20233;-79
2022/09/30 08:18:00;;;;;;;20.85;14.32;;;;;;;17.49;100.00;63805.53;5037617;28;20264;-79
2022/09/30 08:20:28;;;;;;;18.38;13.95;;;;;;;17.55;100.00;63806.63;5035865;28;20194;-78
2022/09/30 08:22:55;;;;;;;17.95;13.38;;;;;;;17.66;100.00;63820.66;5035660;28;20328;-79
2022/09/30 08:25:25;;;;;;;20.50;11.68;;;;;;;17.74;100.00;63832.09;5037103;28;20478;-79
2022/09/30 08:27:52;;;;;;;21.55;11.38;;;;;;;17.79;100.00;63839.34;5034253;28;20226;-79
2022/09/30 08:30:19;;;;;;;17.02;11.43;;;;;;;17.88;100.00;63843.56;5039249;28;20209;-79
2022/09/30 08:32:45;;;;;;;14.43;11.55;;;;;;;17.77;100.00;63832.66;5031501;28;20218;-80
2022/09/30 08:35:12;;;;;;;19.73;12.90;;;;;;;17.99;100.00;63858.13;5037303;28;20233;-80
2022/09/30 08:37:39;;;;;;;20.10;12.63;;;;;;;18.14;100.00;63876.31;5046528;28;20259;-78
2022/09/30 08:40:07;;;;;;;16.17;12.35;;;;;;;18.15;100.00;63874.78;5049733;28;20496;-80
2022/09/30 08:42:50;;;;;;;20.33;12.10;;;;;;;18.40;100.00;63897.75;5043934;28;20224;-81
2022/09/30 08:45:30;;;;;;;18.67;11.40;;;;;;;18.54;100.00;63917.50;5039055;28;20227;-81
2022/09/30 08:48:05;;;;;;;20.80;11.23;;;;;;;18.65;100.00;63923.81;5046447;28;20240;-82
2022/09/30 08:50:41;;;;;;;14.98;10.02;;;;;;;18.62;100.00;63928.41;5033731;28;20190;-82
2022/09/30 08:53:11;;;;;;;15.45;8.85;;;;;;;18.79;100.00;63941.00;5049561;28;20224;-79
2022/09/30 08:55:42;;;;;;;13.93;9.77;;;;;;;19.01;100.00;63963.91;5048557;28;20213;-83
2022/09/30 08:58:21;;;;;;;10.75;7.90;;;;;;;19.21;100.00;63982.19;5040288;28;20263;-80
2022/09/30 09:00:50;;;;;;;10.98;8.52;;;;;;;19.35;100.00;63996.81;5050077;28;20197;-81
2022/09/30 09:03:19;;;;;;;9.43;8.00;;;;;;;19.53;100.00;64020.72;5047012;28;20343;-82
2022/09/30 09:05:55;;;;;;;8.30;7.45;;;;;;;19.71;100.00;64041.06;5042933;28;20212;-81
2022/09/30 09:08:33;;;;;;;8.07;6.40;;;;;;;19.82;100.00;64047.88;5049502;28;20228;-80
2022/09/30 09:11:07;;;;;;;12.43;7.30;;;;;;;19.88;100.00;64056.72;5035871;28;20208;-80
2022/09/30 09:13:50;;;;;;;8.32;7.28;;;;;;;20.07;100.00;64073.44;5043511;28;20215;-79
2022/09/30 09:16:29;;;;;;;11.68;7.32;;;;;;;20.06;100.00;64072.41;5047362;28;20229;-80
2022/09/30 09:19:07;;;;;;;11.05;7.05;;;;;;;20.09;100.00;64078.09;5038132;28;20213;-80
2022/09/30 09:21:47;;;;;;;10.23;6.88;;;;;;;19.88;100.00;64054.13;5044521;28;20193;-79
2022/09/30 09:24:18;;;;;;;7.43;6.47;;;;;;;19.95;100.00;64061.44;5046174;28;20509;-79
2022/09/30 09:26:46;;;;;;;8.13;7.22;;;;;;;20.11;100.00;64077.63;5049537;28;20189;-79
2022/09/30 09:29:27;;;;;;;10.13;6.25;;;;;;;20.14;100.00;64083.84;5047919;28;20205;-80
2022/09/30 09:31:55;;;;;;;7.65;6.43;;;;;;;20.14;100.00;64083.84;5046722;28;20259;-81
2022/09/30 09:34:25;;;;;;;7.05;6.15;;;;;;;20.23;100.00;64095.31;5051075;28;20201;-81
2022/09/30 09:37:09;;;;;;;8.95;6.43;;;;;;;20.30;100.00;64097.47;5039931;28;20616;-80
2022/09/30 09:40:02;;;;;;;9.13;6.18;;;;;;;20.41;100.00;64108.94;5046005;28;20213;-80
2022/09/30 09:42:55;;;;;;;6.43;5.80;;;;;;;20.42;99.31;64109.97;5047068;28;20263;-81
2022/09/30 09:45:29;;;;;;;8.13;4.93;;;;;;;20.61;98.35;64127.75;5035277;28;20194;-82
2022/09/30 09:47:58;;;;;;;5.97;5.47;;;;;;;20.61;97.40;64129.81;5037786;28;20217;-82
2022/09/30 09:50:35;;;;;;;11.68;6.15;;;;;;;20.91;100.00;64158.56;5041507;28;20858;-79
2022/09/30 09:53:16;;;;;;;6.05;5.45;;;;;;;21.03;100.00;64173.69;5037363;28;20273;-80
2022/09/30 09:55:44;;;;;;;4.80;4.40;;;;;;;21.21;93.47;64191.97;5037948;28;20221;-80
2022/09/30 09:58:14;;;;;;;5.78;4.82;;;;;;;21.40;94.75;64214.91;5041297;28;20214;-79
2022/09/30 10:03:27;;;;;;;5.35;4.88;;;;;;;21.66;89.41;64236.91;5005510;28;20256;-81
2022/09/30 10:06:03;;;;;;;7.90;5.13;;;;;;;21.75;92.91;64254.09;5035071;28;20204;-81
2022/09/30 10:08:32;;;;;;;6.07;5.10;;;;;;;21.88;97.72;64258.84;5038953;28;20225;-79
2022/09/30 10:11:02;;;;;;;5.82;5.18;;;;;;;21.94;92.30;64272.91;5039381;28;20198;-80
2022/09/30 10:13:32;;;;;;;6.40;3.30;;;;;;;22.15;82.64;64287.59;5035682;28;20217;-80
2022/09/30 10:16:01;;;;;;;3.65;3.28;;;;;;;22.23;74.70;64298.53;5036618;28;20529;-80
2022/09/30 10:18:32;;;;;;;1.85;1.55;;;;;;;22.50;64.00;64328.84;5046130;28;20225;-81
2022/09/30 10:21:02;;;;;;;2.75;2.53;;;;;;;22.63;61.72;64339.84;5045755;28;20236;-81
2022/09/30 10:23:31;;;;;;;2.22;2.13;;;;;;;22.67;58.28;64349.22;5049177;28;20229;-80
2022/09/30 10:26:04;;;;;;;1.75;1.60;;;;;;;22.71;54.54;64350.81;5043354;28;20221;-79
2022/09/30 10:28:34;;;;;;;2.42;1.83;;;;;;;22.80;61.35;64360.75;5046870;28;20406;-79
2022/09/30 10:31:06;;;;;;;1.90;1.80;;;;;;;22.91;60.31;64363.94;5051197;28;20498;-79
2022/09/30 10:33:40;;;;;;;2.25;2.08;;;;;;;23.00;57.23;64378.03;5051696;28;20221;-79
2022/09/30 10:36:14;;;;;;;4.32;3.05;;;;;;;23.18;69.14;64399.97;5036704;28;20217;-81
2022/09/30 10:38:55;;;;;;;3.97;3.67;;;;;;;23.30;70.47;64409.41;5051158;28;20528;-82
2022/09/30 10:41:25;;;;;;;4.63;3.65;;;;;;;23.21;59.61;64397.91;5050953;28;20198;-81
2022/09/30 10:43:54;;;;;;;3.38;3.03;;;;;;;23.26;60.77;64405.75;5049314;28;20221;-81
2022/09/30 10:46:26;;;;;;;4.63;2.72;;;;;;;23.40;59.78;64417.78;5051223;28;20198;-80
2022/09/30 10:48:56;;;;;;;4.25;3.83;;;;;;;23.35;57.85;64417.78;5051794;28;20503;-82
2022/09/30 10:51:35;;;;;;;3.28;2.97;;;;;;;23.46;56.35;64426.69;5051116;28;20216;-81
2022/09/30 10:54:03;;;;;;;3.88;3.55;;;;;;;23.51;54.35;64433.97;5052072;28;20208;-83
2022/09/30 10:56:42;;;;;;;3.40;3.10;;;;;;;23.54;56.10;64434.53;5051238;28;20239;-83
2022/09/30 10:59:31;;;;;;;5.47;3.35;;;;;;;23.64;57.47;64448.09;5051639;28;20201;-81
2022/09/30 11:02:16;;;;;;;6.97;4.53;;;;;;;23.60;59.02;64443.41;5053321;28;20213;-82
2022/09/30 11:04:48;;;;;;;5.20;4.80;;;;;;;23.76;59.65;64463.25;5051493;28;20236;-82
2022/09/30 11:07:22;;;;;;;3.72;2.97;;;;;;;23.57;55.06;64437.66;5049117;28;20243;-80
2022/09/30 11:09:56;;;;;;;4.85;3.08;;;;;;;23.59;54.13;64442.88;5047286;28;20212;-83
2022/09/30 11:12:29;;;;;;;3.80;3.28;;;;;;;23.75;55.45;64459.63;5039591;28;20280;-82
2022/09/30 11:15:06;;;;;;;2.75;2.28;;;;;;;23.82;49.93;64466.94;5039460;28;20256;-81
2022/09/30 11:17:42;;;;;;;3.15;2.50;;;;;;;23.89;51.19;64471.69;5044395;28;20284;-80
2022/09/30 11:20:19;;;;;;;2.33;2.22;;;;;;;24.09;54.23;64491.56;5036835;28;20182;-80
2022/09/30 11:22:53;;;;;;;3.42;2.75;;;;;;;24.19;56.23;64502.56;5042979;28;20438;-84
2022/09/30 11:25:27;;;;;;;5.70;2.97;;;;;;;24.26;52.47;64512.50;5038006;28;20194;-80
2022/09/30 11:28:24;;;;;;;3.40;3.20;;;;;;;24.35;48.32;64519.31;5045218;28;20205;-81
2022/09/30 11:30:59;;;;;;;3.78;3.00;;;;;;;24.23;47.67;64506.75;5041624;28;20197;-79
2022/09/30 11:33:43;;;;;;;3.75;2.30;;;;;;;24.26;51.92;64512.50;5045136;28;20225;-81
2022/09/30 11:36:17;;;;;;;5.13;3.28;;;;;;;24.45;50.62;64535.00;5042784;28;20217;-81
2022/09/30 11:39:21;;;;;;;2.70;2.58;;;;;;;24.53;50.04;64542.84;5043083;28;20216;-83
2022/09/30 11:41:57;;;;;;;2.50;2.30;;;;;;;24.65;48.14;64553.34;5043554;28;20189;-81